createdAt,value
2019-05-06T00:01:11.289Z,8.32
2019-05-06T00:03:38.445Z,8.29
2019-05-06T00:06:05.516Z,8.25
2019-05-06T00:08:34.568Z,8.33
2019-05-06T00:11:01.877Z,8.33
2019-05-06T00:13:29.388Z,8.32
2019-05-06T00:15:56.615Z,8.30
2019-05-06T00:18:24.528Z,8.28
2019-05-06T00:20:51.724Z,8.23
2019-05-06T00:23:24.995Z,8.23
2019-05-06T00:26:29.515Z,8.25
2019-05-06T00:28:59.793Z,8.29
2019-05-06T00:31:26.949Z,8.26
2019-05-06T00:33:54.396Z,8.28
2019-05-06T00:36:23.589Z,8.27
2019-05-06T00:38:53.986Z,8.29
2019-05-06T00:41:25.450Z,8.32
2019-05-06T00:43:54.585Z,8.28
2019-05-06T00:46:21.653Z,8.31
2019-05-06T00:48:48.825Z,8.31
2019-05-06T00:51:16.295Z,8.30
2019-05-06T00:53:47.246Z,8.30
2019-05-06T00:56:14.415Z,8.28
2019-05-06T00:58:43.310Z,8.25
2019-05-06T01:01:24.042Z,8.22
2019-05-06T01:03:40.040Z,8.25
2019-05-06T01:06:07.294Z,8.25
2019-05-06T01:08:35.023Z,8.23
2019-05-06T01:11:04.061Z,8.20
2019-05-06T01:13:43.793Z,8.16
2019-05-06T01:16:13.022Z,8.15
2019-05-06T01:18:40.156Z,8.15
2019-05-06T01:21:09.877Z,8.13
2019-05-06T01:23:39.816Z,8.10
2019-05-06T01:26:06.891Z,8.11
2019-05-06T01:28:34.193Z,8.11
2019-05-06T01:31:01.328Z,8.10
2019-05-06T01:33:28.496Z,8.11
2019-05-06T01:35:55.570Z,8.10
2019-05-06T01:38:30.509Z,8.09
2019-05-06T01:41:33.838Z,8.03
2019-05-06T01:44:01.507Z,8.05
2019-05-06T01:46:28.546Z,8.01
2019-05-06T01:48:56.239Z,7.92
2019-05-06T01:51:24.270Z,7.85
2019-05-06T01:53:51.494Z,7.88
2019-05-06T01:56:18.662Z,7.85
2019-05-06T01:58:46.190Z,7.81
2019-05-06T02:01:14.742Z,7.78
2019-05-06T02:03:44.161Z,7.72
2019-05-06T02:06:13.890Z,7.67
2019-05-06T02:08:40.911Z,7.62
2019-05-06T02:11:08.067Z,7.72
2019-05-06T02:13:35.265Z,7.58
2019-05-06T02:16:03.966Z,7.45
2019-05-06T02:18:31.189Z,7.34
2019-05-06T02:21:05.448Z,7.16
2019-05-06T02:23:35.930Z,6.99
2019-05-06T02:26:04.856Z,6.89
2019-05-06T02:28:34.355Z,6.73
2019-05-06T02:31:20.633Z,6.63
2019-05-06T02:34:10.108Z,6.47
2019-05-06T02:37:05.979Z,6.31
2019-05-06T02:39:34.138Z,6.18
2019-05-06T02:42:03.783Z,6.03
2019-05-06T02:44:33.371Z,5.89
2019-05-06T02:47:13.568Z,5.82
2019-05-06T02:49:53.481Z,5.73
2019-05-06T02:52:22.878Z,5.66
2019-05-06T02:54:50.026Z,5.62
2019-05-06T02:57:17.186Z,5.57
2019-05-06T02:59:44.404Z,5.56
2019-05-06T03:02:13.967Z,5.48
2019-05-06T03:04:43.482Z,5.40
2019-05-06T03:07:09.653Z,5.33
2019-05-06T03:09:36.815Z,5.28
2019-05-06T03:12:04.128Z,5.24
2019-05-06T03:14:34.221Z,5.14
2019-05-06T03:17:03.259Z,5.04
2019-05-06T03:19:30.654Z,5.03
2019-05-06T03:22:20.450Z,5.07
2019-05-06T03:24:54.480Z,5.03
2019-05-06T03:27:23.503Z,5.03
2019-05-06T03:29:53.461Z,4.99
2019-05-06T03:32:25.155Z,4.97
2019-05-06T03:35:08.970Z,4.93
2019-05-06T03:37:17.861Z,4.84
2019-05-06T03:39:45.068Z,4.77
2019-05-06T03:42:16.001Z,4.70
2019-05-06T03:44:43.956Z,4.61
2019-05-06T03:47:26.555Z,4.57
2019-05-06T03:49:54.794Z,4.56
2019-05-06T03:52:24.001Z,4.55
2019-05-06T03:54:53.674Z,4.57
2019-05-06T03:57:23.323Z,4.55
2019-05-06T03:59:52.907Z,4.49
2019-05-06T04:02:20.264Z,4.49
2019-05-06T04:04:47.671Z,4.47
2019-05-06T04:07:15.070Z,4.50
2019-05-06T04:09:44.241Z,4.63
2019-05-06T04:12:12.814Z,4.75
2019-05-06T04:14:43.107Z,4.88
2019-05-06T04:17:17.537Z,5.02
2019-05-06T04:19:48.828Z,5.22
2019-05-06T04:22:35.641Z,5.33
2019-05-06T04:25:14.407Z,5.42
2019-05-06T04:27:53.690Z,5.54
2019-05-06T04:30:24.069Z,5.65
2019-05-06T04:32:52.892Z,5.85
2019-05-06T04:35:19.284Z,5.97
2019-05-06T04:37:46.775Z,6.12
2019-05-06T04:40:14.025Z,6.46
2019-05-06T04:42:44.305Z,7.90
2019-05-06T04:45:16.651Z,9.67
2019-05-06T04:47:39.863Z,11.11
2019-05-06T04:50:07.798Z,12.48
2019-05-06T04:52:35.092Z,12.51
2019-05-06T04:55:03.359Z,12.72
2019-05-06T04:57:33.645Z,14.27
2019-05-06T05:00:00.027Z,15.85
2019-05-06T05:02:27.224Z,17.20
2019-05-06T05:04:54.588Z,18.42
2019-05-06T05:07:22.453Z,19.23
2019-05-06T05:09:53.856Z,20.20
2019-05-06T05:12:33.447Z,21.17
2019-05-06T05:15:08.898Z,21.90
2019-05-06T05:17:42.103Z,22.33
2019-05-06T05:20:10.033Z,22.47
2019-05-06T05:22:37.512Z,23.18
2019-05-06T05:25:04.848Z,24.22
2019-05-06T05:27:32.898Z,24.91
2019-05-06T05:30:01.941Z,25.83
2019-05-06T05:32:31.979Z,26.51
2019-05-06T05:34:58.716Z,27.22
2019-05-06T05:37:25.908Z,27.94
2019-05-06T05:39:53.157Z,28.91
2019-05-06T05:42:42.918Z,29.32
2019-05-06T05:45:12.840Z,29.58
2019-05-06T05:47:42.405Z,29.97
2019-05-06T05:50:26.930Z,29.89
2019-05-06T05:52:54.151Z,28.64
2019-05-06T05:55:21.943Z,28.59
2019-05-06T05:57:49.228Z,29.80
2019-05-06T06:00:17.258Z,31.20
2019-05-06T06:02:44.441Z,32.13
2019-05-06T06:05:12.423Z,32.74
2019-05-06T06:07:39.617Z,33.20
2019-05-06T06:10:15.468Z,33.92
2019-05-06T06:12:42.947Z,34.39
2019-05-06T06:15:19.452Z,34.99
2019-05-06T06:18:05.257Z,35.44
2019-05-06T06:21:17.938Z,35.95
2019-05-06T06:23:39.110Z,36.65
2019-05-06T06:26:06.581Z,36.97
2019-05-06T06:28:34.470Z,37.40
2019-05-06T06:31:17.028Z,37.24
2019-05-06T06:33:44.236Z,37.60
2019-05-06T06:36:24.515Z,37.85
2019-05-06T06:38:55.155Z,37.97
2019-05-06T06:41:22.905Z,37.72
2019-05-06T06:43:52.954Z,38.15
2019-05-06T06:46:22.306Z,38.42
2019-05-06T06:48:49.594Z,38.11
2019-05-06T06:51:16.764Z,37.73
2019-05-06T06:53:44.304Z,38.01
2019-05-06T06:56:36.729Z,38.16
2019-05-06T06:59:29.409Z,38.39
2019-05-06T07:02:19.572Z,39.56
2019-05-06T07:04:54.216Z,40.95
2019-05-06T07:07:22.945Z,40.82
2019-05-06T07:09:50.124Z,39.23
2019-05-06T07:12:17.393Z,40.19
2019-05-06T07:14:44.537Z,40.04
2019-05-06T07:17:13.340Z,38.79
2019-05-06T07:19:45.363Z,38.79
2019-05-06T07:22:12.847Z,34.00
2019-05-06T07:24:40.001Z,35.22
2019-05-06T07:27:13.136Z,37.48
2019-05-06T07:29:47.742Z,39.31
2019-05-06T07:32:09.461Z,40.62
2019-05-06T07:34:36.658Z,41.36
2019-05-06T07:37:03.857Z,41.61
2019-05-06T07:39:33.381Z,42.61
2019-05-06T07:42:02.458Z,42.22
2019-05-06T07:44:39.494Z,41.77
2019-05-06T07:47:15.584Z,38.71
2019-05-06T07:49:43.284Z,37.27
2019-05-06T07:52:12.368Z,38.76
2019-05-06T07:54:39.691Z,41.22
2019-05-06T07:57:06.756Z,41.31
2019-05-06T07:59:33.907Z,41.79
2019-05-06T08:02:02.260Z,39.91
2019-05-06T08:04:29.513Z,37.14
2019-05-06T08:06:56.678Z,34.39
2019-05-06T08:09:23.913Z,33.28
2019-05-06T08:11:52.988Z,32.84
2019-05-06T08:14:22.427Z,30.98
2019-05-06T08:17:02.485Z,27.56
2019-05-06T08:19:29.761Z,24.71
2019-05-06T08:21:58.858Z,22.43
2019-05-06T08:24:26.087Z,20.87
2019-05-06T08:26:53.245Z,19.59
2019-05-06T08:29:22.487Z,18.47
2019-05-06T08:31:52.200Z,17.73
2019-05-06T08:34:18.940Z,17.30
2019-05-06T08:37:04.179Z,18.72
2019-05-06T08:39:32.652Z,23.29
2019-05-06T08:41:59.966Z,27.70
2019-05-06T08:44:27.162Z,28.98
2019-05-06T08:46:54.349Z,29.40
2019-05-06T08:49:22.555Z,29.92
2019-05-06T08:52:02.407Z,29.21
2019-05-06T08:54:39.926Z,27.54
2019-05-06T08:57:07.186Z,25.43
2019-05-06T08:59:34.257Z,25.10
2019-05-06T09:02:03.133Z,25.44
2019-05-06T09:04:32.064Z,29.12
2019-05-06T09:06:59.429Z,31.89
2019-05-06T09:09:26.600Z,33.15
2019-05-06T09:11:53.895Z,34.42
2019-05-06T09:14:23.191Z,33.42
2019-05-06T09:16:53.543Z,30.77
2019-05-06T09:19:19.957Z,28.74
2019-05-06T09:21:47.121Z,27.01
2019-05-06T09:24:14.277Z,25.24
2019-05-06T09:26:55.122Z,23.57
2019-05-06T09:29:32.687Z,22.57
2019-05-06T09:32:03.499Z,21.95
2019-05-06T09:34:48.319Z,20.77
2019-05-06T09:37:17.396Z,19.23
2019-05-06T09:39:44.777Z,18.47
2019-05-06T09:42:12.945Z,18.35
2019-05-06T09:44:42.640Z,20.01
2019-05-06T09:47:13.440Z,22.90
2019-05-06T09:49:42.554Z,23.27
2019-05-06T09:52:12.818Z,22.52
2019-05-06T09:54:45.863Z,21.79
2019-05-06T09:57:22.123Z,21.15
2019-05-06T09:59:50.164Z,20.67
2019-05-06T10:02:17.378Z,20.51
2019-05-06T10:04:44.574Z,20.21
2019-05-06T10:07:12.200Z,20.09
2019-05-06T10:09:39.646Z,20.26
2019-05-06T10:12:06.867Z,20.29
2019-05-06T10:14:34.071Z,20.56
2019-05-06T10:17:04.389Z,20.65
2019-05-06T10:19:32.115Z,20.67
2019-05-06T10:21:59.406Z,20.77
2019-05-06T10:24:26.569Z,20.61
2019-05-06T10:26:56.899Z,20.55
2019-05-06T10:29:49.627Z,20.24
2019-05-06T10:32:32.793Z,20.21
2019-05-06T10:34:59.971Z,20.03
2019-05-06T10:37:42.222Z,20.50
2019-05-06T10:40:22.701Z,20.74
2019-05-06T10:42:57.485Z,20.57
2019-05-06T10:45:28.972Z,20.39
2019-05-06T10:47:56.250Z,20.25
2019-05-06T10:50:23.532Z,20.11
2019-05-06T10:53:08.997Z,19.90
2019-05-06T10:55:37.854Z,19.55
2019-05-06T10:58:05.060Z,19.25
2019-05-06T11:00:33.133Z,19.49
2019-05-06T11:03:22.436Z,19.24
2019-05-06T11:05:49.934Z,19.32
2019-05-06T11:08:17.092Z,19.60
2019-05-06T11:10:45.642Z,19.71
2019-05-06T11:13:13.270Z,19.44
2019-05-06T11:15:40.324Z,19.48
2019-05-06T11:18:07.781Z,19.64
2019-05-06T11:20:34.958Z,19.67
2019-05-06T11:23:02.275Z,19.39
2019-05-06T11:25:29.421Z,19.03
2019-05-06T11:27:56.607Z,18.57
2019-05-06T11:30:42.551Z,18.21
2019-05-06T11:33:22.368Z,17.91
2019-05-06T11:35:55.232Z,18.07
2019-05-06T11:38:22.855Z,18.34
2019-05-06T11:40:52.688Z,18.74
2019-05-06T11:43:19.306Z,18.71
2019-05-06T11:45:46.469Z,18.88
2019-05-06T11:48:14.681Z,19.01
2019-05-06T11:50:44.438Z,18.98
2019-05-06T11:53:12.515Z,19.09
2019-05-06T11:55:39.697Z,19.04
2019-05-06T11:58:26.512Z,18.83
2019-05-06T12:00:53.781Z,18.87
2019-05-06T12:03:22.902Z,18.98
2019-05-06T12:05:50.112Z,19.10
2019-05-06T12:08:17.302Z,19.59
2019-05-06T12:10:44.677Z,19.97
2019-05-06T12:13:12.296Z,20.36
2019-05-06T12:15:39.442Z,20.11
2019-05-06T12:18:06.505Z,20.23
2019-05-06T12:20:33.899Z,20.54
2019-05-06T12:23:04.282Z,20.72
2019-05-06T12:25:30.474Z,20.42
2019-05-06T12:27:57.900Z,20.09
2019-05-06T12:30:25.485Z,19.89
2019-05-06T12:33:13.033Z,19.99
2019-05-06T12:35:43.332Z,20.23
2019-05-06T12:38:26.489Z,20.20
2019-05-06T12:40:42.920Z,20.11
2019-05-06T12:43:28.771Z,20.01
2019-05-06T12:45:57.947Z,20.13
2019-05-06T12:48:33.165Z,20.07
2019-05-06T12:51:03.064Z,20.15
2019-05-06T12:53:32.610Z,19.88
2019-05-06T12:55:59.809Z,19.92
2019-05-06T12:58:26.980Z,20.07
2019-05-06T13:00:54.491Z,20.06
2019-05-06T13:03:23.453Z,19.72
2019-05-06T13:05:52.103Z,19.28
2019-05-06T13:08:21.075Z,19.05
2019-05-06T13:10:48.492Z,18.90
2019-05-06T13:13:15.937Z,18.85
2019-05-06T13:15:43.645Z,18.94
2019-05-06T13:18:10.753Z,19.12
2019-05-06T13:20:37.854Z,19.39
2019-05-06T13:23:20.739Z,19.45
2019-05-06T13:25:45.125Z,19.64
2019-05-06T13:28:12.936Z,19.83
2019-05-06T13:30:40.483Z,19.96
2019-05-06T13:33:14.276Z,20.13
2019-05-06T13:35:41.975Z,20.16
2019-05-06T13:38:09.514Z,20.03
2019-05-06T13:40:51.272Z,19.96
2019-05-06T13:43:43.813Z,19.77
2019-05-06T13:46:20.210Z,19.68
2019-05-06T13:49:10.110Z,19.44
2019-05-06T13:51:38.032Z,19.35
2019-05-06T13:54:05.351Z,19.32
2019-05-06T13:56:33.265Z,19.22
2019-05-06T13:59:00.742Z,19.34
2019-05-06T14:01:32.033Z,19.47
2019-05-06T14:03:59.107Z,19.57
2019-05-06T14:06:26.380Z,19.65
2019-05-06T14:08:53.577Z,19.67
2019-05-06T14:11:22.913Z,19.73
2019-05-06T14:13:49.847Z,19.65
2019-05-06T14:16:17.026Z,19.58
2019-05-06T14:18:44.248Z,19.59
2019-05-06T14:21:12.395Z,19.71
2019-05-06T14:23:39.874Z,19.71
2019-05-06T14:26:16.986Z,19.46
2019-05-06T14:29:02.819Z,19.44
2019-05-06T14:31:36.434Z,19.36
2019-05-06T14:34:03.712Z,19.12
2019-05-06T14:36:32.763Z,18.96
2019-05-06T14:39:04.714Z,18.83
2019-05-06T14:41:29.200Z,18.65
2019-05-06T14:43:56.298Z,18.34
2019-05-06T14:46:23.840Z,18.27
2019-05-06T14:48:53.360Z,18.43
2019-05-06T14:51:22.164Z,18.38
2019-05-06T14:53:49.253Z,18.41
2019-05-06T14:56:22.707Z,18.51
2019-05-06T14:59:08.294Z,18.21
2019-05-06T15:01:36.736Z,18.00
2019-05-06T15:04:04.340Z,17.98
2019-05-06T15:06:33.107Z,17.81
2019-05-06T15:09:03.726Z,17.78
2019-05-06T15:11:32.000Z,17.89
2019-05-06T15:13:59.259Z,17.81
2019-05-06T15:16:26.449Z,17.85
2019-05-06T15:18:53.621Z,17.66
2019-05-06T15:21:33.801Z,17.64
2019-05-06T15:23:50.007Z,17.79
2019-05-06T15:26:17.213Z,17.72
2019-05-06T15:28:45.014Z,17.68
2019-05-06T15:31:26.334Z,17.61
2019-05-06T15:33:54.788Z,17.70
2019-05-06T15:36:27.558Z,17.69
2019-05-06T15:38:54.760Z,17.74
2019-05-06T15:41:22.372Z,17.61
2019-05-06T15:43:49.623Z,17.47
2019-05-06T15:46:16.776Z,17.31
2019-05-06T15:48:44.057Z,17.15
2019-05-06T15:51:12.267Z,16.96
2019-05-06T15:53:39.510Z,16.78
2019-05-06T15:56:06.705Z,16.42
2019-05-06T15:58:34.201Z,16.16
2019-05-06T16:01:03.150Z,16.01
2019-05-06T16:03:32.807Z,15.85
2019-05-06T16:05:59.448Z,15.77
2019-05-06T16:08:26.636Z,15.80
2019-05-06T16:10:58.486Z,15.76
2019-05-06T16:13:22.959Z,15.80
2019-05-06T16:15:50.152Z,15.90
2019-05-06T16:18:17.824Z,16.03
2019-05-06T16:20:45.201Z,16.09
2019-05-06T16:23:32.736Z,16.11
2019-05-06T16:26:02.820Z,16.07
2019-05-06T16:28:30.045Z,16.15
2019-05-06T16:30:57.270Z,16.09
2019-05-06T16:33:24.461Z,16.04
2019-05-06T16:35:52.265Z,16.01
2019-05-06T16:38:19.643Z,15.81
2019-05-06T16:40:47.112Z,15.55
2019-05-06T16:43:14.323Z,15.28
2019-05-06T16:45:42.748Z,15.12
2019-05-06T16:48:10.299Z,15.07
2019-05-06T16:50:37.372Z,14.99
2019-05-06T16:53:04.717Z,14.93
2019-05-06T16:55:55.449Z,14.84
2019-05-06T16:58:24.571Z,14.77
2019-05-06T17:00:52.429Z,14.67
2019-05-06T17:03:25.578Z,14.63
2019-05-06T17:06:06.789Z,14.55
2019-05-06T17:08:36.501Z,14.49
2019-05-06T17:11:04.898Z,14.37
2019-05-06T17:13:34.043Z,14.24
2019-05-06T17:16:02.497Z,14.21
2019-05-06T17:18:29.890Z,14.21
2019-05-06T17:20:57.075Z,14.12
2019-05-06T17:23:24.284Z,14.02
2019-05-06T17:25:52.125Z,13.92
2019-05-06T17:28:26.448Z,13.91
2019-05-06T17:31:10.212Z,13.82
2019-05-06T17:33:42.869Z,13.65
2019-05-06T17:36:12.676Z,13.61
2019-05-06T17:38:45.562Z,13.48
2019-05-06T17:41:12.634Z,13.44
2019-05-06T17:43:41.026Z,13.39
2019-05-06T17:46:08.922Z,13.25
2019-05-06T17:48:42.586Z,13.23
2019-05-06T17:51:21.735Z,13.12
2019-05-06T17:53:52.664Z,13.03
2019-05-06T17:56:22.105Z,12.96
2019-05-06T17:58:49.306Z,12.82
2019-05-06T18:01:19.989Z,12.71
2019-05-06T18:03:47.143Z,12.67
2019-05-06T18:06:14.489Z,12.48
2019-05-06T18:08:43.274Z,12.46
2019-05-06T18:11:12.756Z,12.36
2019-05-06T18:13:39.762Z,12.21
2019-05-06T18:16:06.956Z,12.09
2019-05-06T18:18:34.112Z,12.05
2019-05-06T18:21:02.564Z,11.91
2019-05-06T18:23:29.688Z,11.87
2019-05-06T18:25:56.901Z,11.69
2019-05-06T18:28:24.013Z,11.55
2019-05-06T18:30:52.116Z,11.54
2019-05-06T18:33:19.635Z,11.52
2019-05-06T18:35:46.749Z,11.34
2019-05-06T18:38:13.920Z,11.23
2019-05-06T18:40:42.373Z,11.20
2019-05-06T18:43:09.982Z,11.03
2019-05-06T18:45:37.160Z,10.94
2019-05-06T18:48:04.221Z,10.96
2019-05-06T18:50:32.009Z,10.93
2019-05-06T18:52:59.332Z,10.92
2019-05-06T18:55:26.492Z,10.91
2019-05-06T18:57:53.729Z,10.94
2019-05-06T19:00:22.453Z,10.83
2019-05-06T19:02:52.055Z,10.69
2019-05-06T19:05:29.406Z,10.62
2019-05-06T19:07:56.862Z,10.62
2019-05-06T19:10:26.795Z,10.67
2019-05-06T19:12:54.473Z,10.45
2019-05-06T19:15:22.032Z,10.25
2019-05-06T19:17:49.274Z,10.08
2019-05-06T19:20:16.697Z,9.97
2019-05-06T19:22:43.914Z,9.91
2019-05-06T19:25:14.345Z,9.83
2019-05-06T19:27:42.019Z,9.73
2019-05-06T19:30:09.687Z,9.65
2019-05-06T19:32:36.854Z,9.64
2019-05-06T19:35:04.311Z,9.63
2019-05-06T19:37:32.843Z,9.60
2019-05-06T19:40:02.682Z,9.61
2019-05-06T19:42:43.688Z,9.61
2019-05-06T19:44:58.836Z,9.64
2019-05-06T19:47:26.353Z,9.65
2019-05-06T19:49:53.587Z,9.77
2019-05-06T19:52:20.818Z,9.81
2019-05-06T19:54:51.929Z,9.88
2019-05-06T19:57:18.848Z,9.96
2019-05-06T19:59:46.262Z,9.95
2019-05-06T20:02:13.812Z,9.97
2019-05-06T20:04:44.467Z,10.07
2019-05-06T20:07:22.882Z,10.07
2019-05-06T20:10:12.718Z,10.05
2019-05-06T20:12:58.474Z,10.03
2019-05-06T20:15:34.001Z,9.99
2019-05-06T20:18:03.038Z,9.96
2019-05-06T20:20:34.603Z,9.94
2019-05-06T20:22:59.442Z,9.87
2019-05-06T20:25:26.670Z,9.83
2019-05-06T20:27:53.921Z,9.76
2019-05-06T20:30:21.903Z,9.73
2019-05-06T20:32:49.202Z,9.67
2019-05-06T20:35:16.360Z,9.61
2019-05-06T20:37:43.931Z,9.53
2019-05-06T20:40:14.507Z,9.47
2019-05-06T20:42:42.635Z,9.40
2019-05-06T20:45:10.040Z,9.37
2019-05-06T20:47:38.096Z,9.38
2019-05-06T20:50:06.756Z,9.45
2019-05-06T20:52:33.960Z,9.46
2019-05-06T20:55:02.890Z,9.51
2019-05-06T20:57:30.256Z,9.57
2019-05-06T20:59:57.486Z,9.64
2019-05-06T21:02:25.878Z,9.67
2019-05-06T21:04:53.020Z,9.75
2019-05-06T21:07:20.217Z,9.81
2019-05-06T21:09:47.298Z,9.84
2019-05-06T21:12:14.454Z,9.92
2019-05-06T21:14:42.229Z,10.04
2019-05-06T21:17:09.435Z,10.03
2019-05-06T21:19:36.592Z,10.08
2019-05-06T21:22:03.814Z,10.02
2019-05-06T21:24:32.540Z,10.00
2019-05-06T21:27:02.644Z,9.97
2019-05-06T21:29:29.532Z,9.94
2019-05-06T21:31:56.697Z,9.94
2019-05-06T21:34:23.861Z,9.96
2019-05-06T21:36:53.097Z,9.94
2019-05-06T21:39:22.251Z,9.97
2019-05-06T21:41:49.407Z,9.99
2019-05-06T21:44:16.887Z,10.02
2019-05-06T21:46:43.929Z,10.08
2019-05-06T21:49:12.152Z,10.06
2019-05-06T21:51:39.457Z,10.02
2019-05-06T21:54:06.839Z,10.08
2019-05-06T21:56:33.990Z,10.06
2019-05-06T21:59:02.012Z,9.97
2019-05-06T22:01:29.454Z,9.98
2019-05-06T22:03:56.615Z,9.92
2019-05-06T22:06:23.799Z,9.86
2019-05-06T22:08:51.890Z,9.81
2019-05-06T22:11:19.149Z,9.78
2019-05-06T22:13:57.935Z,9.74
2019-05-06T22:16:15.442Z,9.72
2019-05-06T22:18:43.315Z,9.71
2019-05-06T22:21:22.518Z,9.69
2019-05-06T22:23:54.393Z,9.69
2019-05-06T22:26:23.130Z,9.68
2019-05-06T22:28:52.443Z,9.72
2019-05-06T22:31:22.217Z,9.79
2019-05-06T22:33:48.788Z,9.76
2019-05-06T22:36:16.735Z,9.69
2019-05-06T22:38:44.316Z,9.66
2019-05-06T22:41:11.626Z,9.63
2019-05-06T22:43:38.785Z,9.61
2019-05-06T22:46:05.968Z,9.59
2019-05-06T22:48:33.130Z,9.57
2019-05-06T22:51:02.553Z,9.54
2019-05-06T22:53:29.526Z,9.52
2019-05-06T22:55:59.027Z,9.51
2019-05-06T22:58:26.272Z,9.49
2019-05-06T23:00:54.172Z,9.49
2019-05-06T23:03:22.868Z,9.48
2019-05-06T23:05:50.032Z,9.48
2019-05-06T23:08:17.175Z,9.51
2019-05-06T23:10:44.676Z,9.48
2019-05-06T23:13:12.538Z,9.47
2019-05-06T23:15:41.903Z,9.48
2019-05-06T23:18:09.199Z,9.47
2019-05-06T23:20:36.362Z,9.49
2019-05-06T23:23:04.935Z,9.53
2019-05-06T23:25:32.681Z,9.55
2019-05-06T23:27:59.898Z,9.53
2019-05-06T23:30:27.095Z,9.49
2019-05-06T23:32:54.241Z,9.49
2019-05-06T23:35:22.024Z,9.50
2019-05-06T23:38:25.680Z,9.51
2019-05-06T23:41:29.079Z,9.48
2019-05-06T23:44:45.425Z,9.47
2019-05-06T23:47:38.676Z,9.49
2019-05-06T23:50:42.883Z,9.47
2019-05-06T23:53:46.498Z,9.48
2019-05-06T23:56:43.506Z,9.45
2019-05-06T23:59:12.470Z,9.40
